sensor_id;sensor_type;location;lat;lon;timestamp;P1;durP1;ratioP1;P2;durP2;ratioP2
22715;SDS011;11525;51.152;4.456;2022-08-02T00:01:37;3.80;;;2.85;;
22715;SDS011;11525;51.152;4.456;2022-08-02T00:04:03;4.07;;;2.53;;
22715;SDS011;11525;51.152;4.456;2022-08-02T00:06:29;7.55;;;2.90;;
22715;SDS011;11525;51.152;4.456;2022-08-02T00:08:55;5.63;;;2.97;;
22715;SDS011;11525;51.152;4.456;2022-08-02T00:11:21;10.63;;;2.80;;
22715;SDS011;11525;51.152;4.456;2022-08-02T00:13:47;8.73;;;3.13;;
22715;SDS011;11525;51.152;4.456;2022-08-02T00:16:13;8.93;;;2.97;;
22715;SDS011;11525;51.152;4.456;2022-08-02T00:18:38;5.70;;;2.92;;
22715;SDS011;11525;51.152;4.456;2022-08-02T00:21:04;6.68;;;2.67;;
22715;SDS011;11525;51.152;4.456;2022-08-02T00:23:30;6.88;;;3.15;;
22715;SDS011;11525;51.152;4.456;2022-08-02T00:25:56;6.47;;;2.97;;
22715;SDS011;11525;51.152;4.456;2022-08-02T00:28:23;6.18;;;2.42;;
22715;SDS011;11525;51.152;4.456;2022-08-02T00:30:49;8.63;;;3.00;;
22715;SDS011;11525;51.152;4.456;2022-08-02T00:33:15;5.10;;;2.72;;
22715;SDS011;11525;51.152;4.456;2022-08-02T00:35:41;5.45;;;2.85;;
22715;SDS011;11525;51.152;4.456;2022-08-02T00:38:07;5.50;;;2.65;;
22715;SDS011;11525;51.152;4.456;2022-08-02T00:40:35;7.93;;;3.33;;
22715;SDS011;11525;51.152;4.456;2022-08-02T00:43:02;6.88;;;3.42;;
22715;SDS011;11525;51.152;4.456;2022-08-02T00:45:33;3.65;;;2.33;;
22715;SDS011;11525;51.152;4.456;2022-08-02T00:48:02;6.43;;;2.65;;
22715;SDS011;11525;51.152;4.456;2022-08-02T00:50:28;7.90;;;3.03;;
22715;SDS011;11525;51.152;4.456;2022-08-02T00:52:54;9.35;;;2.63;;
22715;SDS011;11525;51.152;4.456;2022-08-02T00:55:20;7.07;;;2.95;;
22715;SDS011;11525;51.152;4.456;2022-08-02T00:57:47;7.35;;;3.28;;
22715;SDS011;11525;51.152;4.456;2022-08-02T01:00:13;6.55;;;3.35;;
22715;SDS011;11525;51.152;4.456;2022-08-02T01:02:39;8.93;;;3.20;;
22715;SDS011;11525;51.152;4.456;2022-08-02T01:05:06;8.95;;;3.83;;
22715;SDS011;11525;51.152;4.456;2022-08-02T01:07:32;8.38;;;3.65;;
22715;SDS011;11525;51.152;4.456;2022-08-02T01:09:58;6.13;;;2.90;;
22715;SDS011;11525;51.152;4.456;2022-08-02T01:12:25;5.07;;;2.90;;
22715;SDS011;11525;51.152;4.456;2022-08-02T01:14:52;7.15;;;3.00;;
22715;SDS011;11525;51.152;4.456;2022-08-02T01:34:12;9.30;;;3.38;;
22715;SDS011;11525;51.152;4.456;2022-08-02T01:37:23;7.40;;;3.83;;
22715;SDS011;11525;51.152;4.456;2022-08-02T01:40:12;6.32;;;3.40;;
22715;SDS011;11525;51.152;4.456;2022-08-02T01:42:42;10.20;;;3.58;;
22715;SDS011;11525;51.152;4.456;2022-08-02T01:45:12;8.43;;;3.42;;
22715;SDS011;11525;51.152;4.456;2022-08-02T01:47:40;7.82;;;3.10;;
22715;SDS011;11525;51.152;4.456;2022-08-02T01:50:10;8.27;;;3.30;;
22715;SDS011;11525;51.152;4.456;2022-08-02T01:52:40;6.47;;;3.67;;
22715;SDS011;11525;51.152;4.456;2022-08-02T01:57:42;6.93;;;3.20;;
22715;SDS011;11525;51.152;4.456;2022-08-02T02:00:12;5.53;;;3.20;;
22715;SDS011;11525;51.152;4.456;2022-08-02T02:02:41;6.70;;;3.60;;
22715;SDS011;11525;51.152;4.456;2022-08-02T02:05:12;8.70;;;3.83;;
22715;SDS011;11525;51.152;4.456;2022-08-02T02:07:41;8.98;;;3.83;;
22715;SDS011;11525;51.152;4.456;2022-08-02T02:10:09;6.60;;;3.78;;
22715;SDS011;11525;51.152;4.456;2022-08-02T02:12:38;11.95;;;3.88;;
22715;SDS011;11525;51.152;4.456;2022-08-02T02:15:07;6.45;;;3.60;;
22715;SDS011;11525;51.152;4.456;2022-08-02T02:17:36;6.22;;;3.92;;
22715;SDS011;11525;51.152;4.456;2022-08-02T02:20:07;7.70;;;4.43;;
22715;SDS011;11525;51.152;4.456;2022-08-02T02:22:37;6.45;;;3.67;;
22715;SDS011;11525;51.152;4.456;2022-08-02T02:25:03;6.35;;;3.70;;
22715;SDS011;11525;51.152;4.456;2022-08-02T02:27:29;8.98;;;4.03;;
22715;SDS011;11525;51.152;4.456;2022-08-02T02:29:56;10.35;;;4.03;;
22715;SDS011;11525;51.152;4.456;2022-08-02T02:32:23;6.68;;;4.07;;
22715;SDS011;11525;51.152;4.456;2022-08-02T02:34:51;10.52;;;4.20;;
22715;SDS011;11525;51.152;4.456;2022-08-02T02:37:19;7.80;;;4.55;;
22715;SDS011;11525;51.152;4.456;2022-08-02T02:39:50;5.10;;;3.78;;
22715;SDS011;11525;51.152;4.456;2022-08-02T02:42:19;8.68;;;4.15;;
22715;SDS011;11525;51.152;4.456;2022-08-02T02:44:49;8.07;;;3.70;;
22715;SDS011;11525;51.152;4.456;2022-08-02T02:47:16;8.45;;;3.70;;
22715;SDS011;11525;51.152;4.456;2022-08-02T02:49:44;6.93;;;4.10;;
22715;SDS011;11525;51.152;4.456;2022-08-02T02:52:14;7.22;;;3.92;;
22715;SDS011;11525;51.152;4.456;2022-08-02T02:54:45;9.65;;;4.22;;
22715;SDS011;11525;51.152;4.456;2022-08-02T02:57:13;5.22;;;3.90;;
22715;SDS011;11525;51.152;4.456;2022-08-02T02:59:40;5.10;;;4.13;;
22715;SDS011;11525;51.152;4.456;2022-08-02T03:02:06;7.70;;;4.35;;
22715;SDS011;11525;51.152;4.456;2022-08-02T03:04:37;7.45;;;4.90;;
22715;SDS011;11525;51.152;4.456;2022-08-02T03:07:06;9.00;;;4.40;;
22715;SDS011;11525;51.152;4.456;2022-08-02T03:09:33;8.32;;;4.38;;
22715;SDS011;11525;51.152;4.456;2022-08-02T03:11:58;6.63;;;4.00;;
22715;SDS011;11525;51.152;4.456;2022-08-02T03:14:25;15.25;;;3.78;;
22715;SDS011;11525;51.152;4.456;2022-08-02T03:16:51;5.88;;;3.90;;
22715;SDS011;11525;51.152;4.456;2022-08-02T03:19:19;9.75;;;3.90;;
22715;SDS011;11525;51.152;4.456;2022-08-02T03:21:46;7.13;;;3.95;;
22715;SDS011;11525;51.152;4.456;2022-08-02T03:24:13;7.80;;;3.95;;
22715;SDS011;11525;51.152;4.456;2022-08-02T03:26:39;6.15;;;4.05;;
22715;SDS011;11525;51.152;4.456;2022-08-02T03:29:06;7.25;;;4.40;;
22715;SDS011;11525;51.152;4.456;2022-08-02T03:31:32;6.13;;;4.10;;
22715;SDS011;11525;51.152;4.456;2022-08-02T03:33:59;8.05;;;3.90;;
22715;SDS011;11525;51.152;4.456;2022-08-02T03:36:27;8.02;;;4.15;;
22715;SDS011;11525;51.152;4.456;2022-08-02T03:38:55;6.32;;;4.47;;
22715;SDS011;11525;51.152;4.456;2022-08-02T03:41:22;5.55;;;4.25;;
22715;SDS011;11525;51.152;4.456;2022-08-02T03:43:48;6.32;;;4.75;;
22715;SDS011;11525;51.152;4.456;2022-08-02T03:46:16;6.57;;;4.57;;
22715;SDS011;11525;51.152;4.456;2022-08-02T03:48:45;7.25;;;4.32;;
22715;SDS011;11525;51.152;4.456;2022-08-02T03:51:13;9.55;;;4.57;;
22715;SDS011;11525;51.152;4.456;2022-08-02T03:53:40;5.07;;;3.70;;
22715;SDS011;11525;51.152;4.456;2022-08-02T03:56:06;11.35;;;5.55;;
22715;SDS011;11525;51.152;4.456;2022-08-02T03:58:32;10.23;;;5.40;;
22715;SDS011;11525;51.152;4.456;2022-08-02T04:00:58;8.75;;;5.38;;
22715;SDS011;11525;51.152;4.456;2022-08-02T04:03:24;11.10;;;5.60;;
22715;SDS011;11525;51.152;4.456;2022-08-02T04:05:50;10.18;;;5.18;;
22715;SDS011;11525;51.152;4.456;2022-08-02T04:08:16;11.65;;;5.50;;
22715;SDS011;11525;51.152;4.456;2022-08-02T04:10:42;9.40;;;5.80;;
22715;SDS011;11525;51.152;4.456;2022-08-02T04:13:44;9.43;;;5.68;;
22715;SDS011;11525;51.152;4.456;2022-08-02T04:18:44;6.28;;;4.82;;
22715;SDS011;11525;51.152;4.456;2022-08-02T04:21:16;11.02;;;5.30;;
22715;SDS011;11525;51.152;4.456;2022-08-02T04:23:43;12.88;;;4.78;;
22715;SDS011;11525;51.152;4.456;2022-08-02T04:26:11;9.93;;;5.05;;
22715;SDS011;11525;51.152;4.456;2022-08-02T04:28:37;12.88;;;5.43;;
22715;SDS011;11525;51.152;4.456;2022-08-02T04:31:04;13.57;;;5.85;;
22715;SDS011;11525;51.152;4.456;2022-08-02T04:33:31;8.98;;;5.38;;
22715;SDS011;11525;51.152;4.456;2022-08-02T04:35:57;10.57;;;5.90;;
22715;SDS011;11525;51.152;4.456;2022-08-02T04:38:23;11.98;;;5.70;;
22715;SDS011;11525;51.152;4.456;2022-08-02T04:40:51;14.98;;;6.93;;
22715;SDS011;11525;51.152;4.456;2022-08-02T04:43:18;11.45;;;6.50;;
22715;SDS011;11525;51.152;4.456;2022-08-02T04:45:46;14.57;;;6.82;;
22715;SDS011;11525;51.152;4.456;2022-08-02T04:48:16;10.95;;;7.70;;
22715;SDS011;11525;51.152;4.456;2022-08-02T04:50:42;18.60;;;7.75;;
22715;SDS011;11525;51.152;4.456;2022-08-02T04:53:08;11.10;;;6.68;;
22715;SDS011;11525;51.152;4.456;2022-08-02T04:55:34;12.80;;;8.07;;
22715;SDS011;11525;51.152;4.456;2022-08-02T04:57:59;9.80;;;7.13;;
22715;SDS011;11525;51.152;4.456;2022-08-02T05:00:26;13.57;;;7.40;;
22715;SDS011;11525;51.152;4.456;2022-08-02T05:02:54;14.70;;;7.03;;
22715;SDS011;11525;51.152;4.456;2022-08-02T05:05:20;9.23;;;5.60;;
22715;SDS011;11525;51.152;4.456;2022-08-02T05:07:46;13.02;;;6.13;;
22715;SDS011;11525;51.152;4.456;2022-08-02T05:10:12;13.00;;;7.00;;
22715;SDS011;11525;51.152;4.456;2022-08-02T05:12:39;14.20;;;6.45;;
22715;SDS011;11525;51.152;4.456;2022-08-02T05:15:05;14.90;;;6.70;;
22715;SDS011;11525;51.152;4.456;2022-08-02T05:17:32;13.02;;;6.95;;
22715;SDS011;11525;51.152;4.456;2022-08-02T05:19:58;14.15;;;6.88;;
22715;SDS011;11525;51.152;4.456;2022-08-02T05:22:24;13.07;;;7.20;;
22715;SDS011;11525;51.152;4.456;2022-08-02T05:24:50;11.60;;;7.68;;
22715;SDS011;11525;51.152;4.456;2022-08-02T05:27:16;14.20;;;7.07;;
22715;SDS011;11525;51.152;4.456;2022-08-02T05:29:41;13.65;;;7.65;;
22715;SDS011;11525;51.152;4.456;2022-08-02T05:32:07;10.77;;;7.38;;
22715;SDS011;11525;51.152;4.456;2022-08-02T05:34:33;12.77;;;7.90;;
22715;SDS011;11525;51.152;4.456;2022-08-02T05:36:58;12.82;;;7.68;;
22715;SDS011;11525;51.152;4.456;2022-08-02T05:39:24;11.38;;;7.80;;
22715;SDS011;11525;51.152;4.456;2022-08-02T05:41:50;13.88;;;7.88;;
22715;SDS011;11525;51.152;4.456;2022-08-02T05:44:16;15.27;;;7.70;;
22715;SDS011;11525;51.152;4.456;2022-08-02T05:46:41;11.70;;;7.50;;
22715;SDS011;11525;51.152;4.456;2022-08-02T05:49:07;16.90;;;7.90;;
22715;SDS011;11525;51.152;4.456;2022-08-02T05:51:37;16.65;;;8.60;;
22715;SDS011;11525;51.152;4.456;2022-08-02T05:54:11;13.48;;;7.47;;
22715;SDS011;11525;51.152;4.456;2022-08-02T06:01:47;13.82;;;8.10;;
22715;SDS011;11525;51.152;4.456;2022-08-02T06:04:26;14.63;;;8.18;;
22715;SDS011;11525;51.152;4.456;2022-08-02T06:06:59;13.52;;;7.55;;
22715;SDS011;11525;51.152;4.456;2022-08-02T06:09:27;9.20;;;6.47;;
22715;SDS011;11525;51.152;4.456;2022-08-02T06:11:53;9.65;;;6.55;;
22715;SDS011;11525;51.152;4.456;2022-08-02T06:14:23;13.70;;;6.15;;
22715;SDS011;11525;51.152;4.456;2022-08-02T06:16:49;10.77;;;6.35;;
22715;SDS011;11525;51.152;4.456;2022-08-02T06:19:17;7.20;;;6.15;;
22715;SDS011;11525;51.152;4.456;2022-08-02T06:21:44;8.68;;;5.78;;
22715;SDS011;11525;51.152;4.456;2022-08-02T06:24:11;9.35;;;4.82;;
22715;SDS011;11525;51.152;4.456;2022-08-02T06:26:38;7.00;;;5.10;;
22715;SDS011;11525;51.152;4.456;2022-08-02T06:29:05;7.75;;;5.25;;
22715;SDS011;11525;51.152;4.456;2022-08-02T06:31:31;7.95;;;4.28;;
22715;SDS011;11525;51.152;4.456;2022-08-02T06:33:57;5.95;;;4.45;;
22715;SDS011;11525;51.152;4.456;2022-08-02T06:36:38;8.65;;;4.38;;
22715;SDS011;11525;51.152;4.456;2022-08-02T06:41:55;9.55;;;4.53;;
22715;SDS011;11525;51.152;4.456;2022-08-02T06:44:26;5.78;;;3.70;;
22715;SDS011;11525;51.152;4.456;2022-08-02T06:46:53;5.63;;;2.92;;
22715;SDS011;11525;51.152;4.456;2022-08-02T06:49:19;4.95;;;3.35;;
22715;SDS011;11525;51.152;4.456;2022-08-02T06:51:45;5.55;;;3.08;;
22715;SDS011;11525;51.152;4.456;2022-08-02T06:54:11;5.43;;;2.92;;
22715;SDS011;11525;51.152;4.456;2022-08-02T06:56:37;7.50;;;2.80;;
22715;SDS011;11525;51.152;4.456;2022-08-02T06:59:02;4.35;;;2.70;;
22715;SDS011;11525;51.152;4.456;2022-08-02T07:01:28;4.20;;;2.20;;
22715;SDS011;11525;51.152;4.456;2022-08-02T07:03:54;6.70;;;2.42;;
22715;SDS011;11525;51.152;4.456;2022-08-02T07:06:19;3.08;;;2.38;;
22715;SDS011;11525;51.152;4.456;2022-08-02T07:08:45;5.97;;;2.95;;
22715;SDS011;11525;51.152;4.456;2022-08-02T07:11:11;5.95;;;2.63;;
22715;SDS011;11525;51.152;4.456;2022-08-02T07:13:37;4.97;;;2.33;;
22715;SDS011;11525;51.152;4.456;2022-08-02T07:16:03;5.25;;;2.97;;
22715;SDS011;11525;51.152;4.456;2022-08-02T07:18:29;4.75;;;2.53;;
22715;SDS011;11525;51.152;4.456;2022-08-02T07:20:55;6.53;;;2.28;;
22715;SDS011;11525;51.152;4.456;2022-08-02T07:23:21;3.78;;;2.35;;
22715;SDS011;11525;51.152;4.456;2022-08-02T07:25:47;3.63;;;2.22;;
22715;SDS011;11525;51.152;4.456;2022-08-02T07:28:13;7.82;;;2.30;;
22715;SDS011;11525;51.152;4.456;2022-08-02T07:30:40;5.75;;;1.88;;
22715;SDS011;11525;51.152;4.456;2022-08-02T07:33:06;3.47;;;1.80;;
22715;SDS011;11525;51.152;4.456;2022-08-02T07:35:32;4.45;;;1.95;;
22715;SDS011;11525;51.152;4.456;2022-08-02T07:37:58;4.88;;;1.73;;
22715;SDS011;11525;51.152;4.456;2022-08-02T07:40:24;5.60;;;1.73;;
22715;SDS011;11525;51.152;4.456;2022-08-02T07:42:51;4.00;;;2.20;;
22715;SDS011;11525;51.152;4.456;2022-08-02T07:45:19;4.30;;;1.70;;
22715;SDS011;11525;51.152;4.456;2022-08-02T07:47:46;3.28;;;1.77;;
22715;SDS011;11525;51.152;4.456;2022-08-02T07:50:12;5.45;;;1.88;;
22715;SDS011;11525;51.152;4.456;2022-08-02T07:52:40;6.50;;;1.60;;
22715;SDS011;11525;51.152;4.456;2022-08-02T07:55:07;4.22;;;1.17;;
22715;SDS011;11525;51.152;4.456;2022-08-02T07:57:34;6.63;;;1.40;;
22715;SDS011;11525;51.152;4.456;2022-08-02T08:00:01;1.88;;;1.20;;
22715;SDS011;11525;51.152;4.456;2022-08-02T08:02:28;2.75;;;1.02;;
22715;SDS011;11525;51.152;4.456;2022-08-02T08:04:54;6.50;;;1.67;;
22715;SDS011;11525;51.152;4.456;2022-08-02T08:07:20;3.88;;;1.50;;
22715;SDS011;11525;51.152;4.456;2022-08-02T08:09:46;6.80;;;1.90;;
22715;SDS011;11525;51.152;4.456;2022-08-02T08:12:14;3.25;;;1.67;;
22715;SDS011;11525;51.152;4.456;2022-08-02T08:14:41;6.55;;;1.67;;
22715;SDS011;11525;51.152;4.456;2022-08-02T08:17:06;1.85;;;1.40;;
22715;SDS011;11525;51.152;4.456;2022-08-02T08:19:33;2.72;;;1.40;;
22715;SDS011;11525;51.152;4.456;2022-08-02T08:21:59;4.22;;;1.33;;
22715;SDS011;11525;51.152;4.456;2022-08-02T08:24:26;3.28;;;1.30;;
22715;SDS011;11525;51.152;4.456;2022-08-02T08:26:52;1.38;;;1.27;;
22715;SDS011;11525;51.152;4.456;2022-08-02T08:29:18;2.63;;;1.30;;
22715;SDS011;11525;51.152;4.456;2022-08-02T08:31:44;4.80;;;1.40;;
22715;SDS011;11525;51.152;4.456;2022-08-02T08:34:10;2.33;;;1.30;;
22715;SDS011;11525;51.152;4.456;2022-08-02T08:36:35;4.20;;;1.25;;
22715;SDS011;11525;51.152;4.456;2022-08-02T08:39:02;2.55;;;1.55;;
22715;SDS011;11525;51.152;4.456;2022-08-02T08:41:28;5.88;;;1.33;;
22715;SDS011;11525;51.152;4.456;2022-08-02T08:43:54;3.50;;;1.20;;
22715;SDS011;11525;51.152;4.456;2022-08-02T08:46:23;5.07;;;1.13;;
22715;SDS011;11525;51.152;4.456;2022-08-02T08:48:52;5.22;;;1.25;;
22715;SDS011;11525;51.152;4.456;2022-08-02T08:51:29;4.93;;;1.55;;
22715;SDS011;11525;51.152;4.456;2022-08-02T08:53:58;2.88;;;1.15;;
22715;SDS011;11525;51.152;4.456;2022-08-02T08:56:32;6.03;;;1.30;;
22715;SDS011;11525;51.152;4.456;2022-08-02T08:59:00;3.45;;;1.20;;
22715;SDS011;11525;51.152;4.456;2022-08-02T09:01:27;3.38;;;1.20;;
22715;SDS011;11525;51.152;4.456;2022-08-02T09:03:54;5.18;;;1.50;;
22715;SDS011;11525;51.152;4.456;2022-08-02T09:06:20;4.78;;;1.35;;
22715;SDS011;11525;51.152;4.456;2022-08-02T09:08:46;8.00;;;1.20;;
22715;SDS011;11525;51.152;4.456;2022-08-02T09:11:13;2.90;;;1.15;;
22715;SDS011;11525;51.152;4.456;2022-08-02T09:13:48;9.10;;;1.35;;
22715;SDS011;11525;51.152;4.456;2022-08-02T09:16:14;2.53;;;0.93;;
22715;SDS011;11525;51.152;4.456;2022-08-02T09:18:50;8.57;;;1.30;;
22715;SDS011;11525;51.152;4.456;2022-08-02T09:21:16;3.13;;;1.20;;
22715;SDS011;11525;51.152;4.456;2022-08-02T09:23:42;3.80;;;1.15;;
22715;SDS011;11525;51.152;4.456;2022-08-02T09:26:17;5.70;;;1.02;;
22715;SDS011;11525;51.152;4.456;2022-08-02T09:28:48;3.33;;;1.02;;
22715;SDS011;11525;51.152;4.456;2022-08-02T09:31:23;3.20;;;0.93;;
22715;SDS011;11525;51.152;4.456;2022-08-02T09:33:53;2.67;;;1.17;;
22715;SDS011;11525;51.152;4.456;2022-08-02T09:36:21;5.05;;;1.20;;
22715;SDS011;11525;51.152;4.456;2022-08-02T09:38:57;3.70;;;1.15;;
22715;SDS011;11525;51.152;4.456;2022-08-02T09:41:29;3.22;;;1.05;;
22715;SDS011;11525;51.152;4.456;2022-08-02T09:43:59;2.05;;;0.90;;
22715;SDS011;11525;51.152;4.456;2022-08-02T09:46:26;2.13;;;1.00;;
22715;SDS011;11525;51.152;4.456;2022-08-02T09:48:55;4.55;;;0.95;;
22715;SDS011;11525;51.152;4.456;2022-08-02T09:51:28;2.45;;;0.93;;
22715;SDS011;11525;51.152;4.456;2022-08-02T09:53:56;5.32;;;0.80;;
22715;SDS011;11525;51.152;4.456;2022-08-02T09:56:24;4.35;;;0.93;;
22715;SDS011;11525;51.152;4.456;2022-08-02T09:58:51;2.45;;;0.82;;
22715;SDS011;11525;51.152;4.456;2022-08-02T10:01:40;2.15;;;1.00;;
22715;SDS011;11525;51.152;4.456;2022-08-02T10:04:06;5.97;;;1.48;;
22715;SDS011;11525;51.152;4.456;2022-08-02T10:06:34;3.00;;;1.00;;
22715;SDS011;11525;51.152;4.456;2022-08-02T10:09:00;3.58;;;0.93;;
22715;SDS011;11525;51.152;4.456;2022-08-02T10:11:27;15.73;;;2.45;;
22715;SDS011;11525;51.152;4.456;2022-08-02T10:13:53;1.55;;;0.73;;
22715;SDS011;11525;51.152;4.456;2022-08-02T10:16:20;5.68;;;1.30;;
22715;SDS011;11525;51.152;4.456;2022-08-02T10:18:50;4.28;;;1.20;;
22715;SDS011;11525;51.152;4.456;2022-08-02T10:24:06;4.97;;;1.13;;
22715;SDS011;11525;51.152;4.456;2022-08-02T10:26:41;8.07;;;1.23;;
22715;SDS011;11525;51.152;4.456;2022-08-02T10:29:08;4.93;;;1.30;;
22715;SDS011;11525;51.152;4.456;2022-08-02T10:31:36;5.30;;;1.00;;
22715;SDS011;11525;51.152;4.456;2022-08-02T10:34:11;5.13;;;1.30;;
22715;SDS011;11525;51.152;4.456;2022-08-02T10:36:41;2.47;;;1.13;;
22715;SDS011;11525;51.152;4.456;2022-08-02T10:39:09;2.55;;;1.08;;
22715;SDS011;11525;51.152;4.456;2022-08-02T10:44:19;1.83;;;1.00;;
22715;SDS011;11525;51.152;4.456;2022-08-02T10:46:46;1.75;;;1.02;;
22715;SDS011;11525;51.152;4.456;2022-08-02T10:49:13;7.95;;;1.15;;
22715;SDS011;11525;51.152;4.456;2022-08-02T10:54:25;2.70;;;0.98;;
22715;SDS011;11525;51.152;4.456;2022-08-02T10:57:24;4.72;;;1.40;;
22715;SDS011;11525;51.152;4.456;2022-08-02T11:00:25;5.22;;;1.00;;
22715;SDS011;11525;51.152;4.456;2022-08-02T11:02:51;1.70;;;0.80;;
22715;SDS011;11525;51.152;4.456;2022-08-02T11:05:30;2.13;;;1.10;;
22715;SDS011;11525;51.152;4.456;2022-08-02T11:07:57;1.58;;;1.02;;
22715;SDS011;11525;51.152;4.456;2022-08-02T11:15:28;3.20;;;1.20;;
22715;SDS011;11525;51.152;4.456;2022-08-02T11:17:55;4.00;;;1.40;;
22715;SDS011;11525;51.152;4.456;2022-08-02T11:20:25;2.88;;;1.40;;
22715;SDS011;11525;51.152;4.456;2022-08-02T11:22:52;2.92;;;1.25;;
22715;SDS011;11525;51.152;4.456;2022-08-02T11:27:55;3.30;;;1.20;;
22715;SDS011;11525;51.152;4.456;2022-08-02T11:30:22;3.75;;;1.30;;
22715;SDS011;11525;51.152;4.456;2022-08-02T11:32:49;3.35;;;1.10;;
22715;SDS011;11525;51.152;4.456;2022-08-02T11:35:19;6.13;;;1.50;;
22715;SDS011;11525;51.152;4.456;2022-08-02T11:37:45;7.93;;;1.88;;
22715;SDS011;11525;51.152;4.456;2022-08-02T11:40:12;6.75;;;1.30;;
22715;SDS011;11525;51.152;4.456;2022-08-02T11:42:41;4.60;;;1.20;;
22715;SDS011;11525;51.152;4.456;2022-08-02T11:45:09;3.42;;;1.17;;
22715;SDS011;11525;51.152;4.456;2022-08-02T11:47:47;3.13;;;1.40;;
22715;SDS011;11525;51.152;4.456;2022-08-02T11:50:15;1.77;;;1.60;;
22715;SDS011;11525;51.152;4.456;2022-08-02T11:52:41;4.20;;;1.10;;
22715;SDS011;11525;51.152;4.456;2022-08-02T11:55:07;2.47;;;1.00;;
22715;SDS011;11525;51.152;4.456;2022-08-02T11:57:34;7.40;;;1.23;;
22715;SDS011;11525;51.152;4.456;2022-08-02T12:00:03;1.73;;;1.23;;
22715;SDS011;11525;51.152;4.456;2022-08-02T12:02:43;4.55;;;1.30;;
22715;SDS011;11525;51.152;4.456;2022-08-02T12:05:14;4.65;;;1.08;;
22715;SDS011;11525;51.152;4.456;2022-08-02T12:07:41;8.38;;;1.38;;
22715;SDS011;11525;51.152;4.456;2022-08-02T12:10:10;1.90;;;1.10;;
22715;SDS011;11525;51.152;4.456;2022-08-02T12:12:48;4.28;;;1.02;;
22715;SDS011;11525;51.152;4.456;2022-08-02T12:15:31;3.00;;;1.17;;
22715;SDS011;11525;51.152;4.456;2022-08-02T12:17:57;2.13;;;1.17;;
22715;SDS011;11525;51.152;4.456;2022-08-02T12:20:41;4.80;;;1.20;;
22715;SDS011;11525;51.152;4.456;2022-08-02T12:23:07;3.20;;;1.30;;
22715;SDS011;11525;51.152;4.456;2022-08-02T12:25:33;2.58;;;1.20;;
22715;SDS011;11525;51.152;4.456;2022-08-02T12:28:22;5.60;;;1.20;;
22715;SDS011;11525;51.152;4.456;2022-08-02T12:30:56;4.20;;;1.10;;
22715;SDS011;11525;51.152;4.456;2022-08-02T12:33:25;1.50;;;1.10;;
22715;SDS011;11525;51.152;4.456;2022-08-02T12:35:52;3.65;;;1.40;;
22715;SDS011;11525;51.152;4.456;2022-08-02T12:38:18;4.82;;;1.10;;
22715;SDS011;11525;51.152;4.456;2022-08-02T12:40:44;3.17;;;1.00;;
22715;SDS011;11525;51.152;4.456;2022-08-02T12:43:18;4.05;;;1.20;;
22715;SDS011;11525;51.152;4.456;2022-08-02T12:45:47;2.85;;;1.10;;
22715;SDS011;11525;51.152;4.456;2022-08-02T12:48:15;3.33;;;1.20;;
22715;SDS011;11525;51.152;4.456;2022-08-02T12:50:53;6.25;;;1.25;;
22715;SDS011;11525;51.152;4.456;2022-08-02T12:53:19;2.70;;;1.08;;
22715;SDS011;11525;51.152;4.456;2022-08-02T12:55:49;4.07;;;1.10;;
22715;SDS011;11525;51.152;4.456;2022-08-02T12:58:16;2.13;;;1.10;;
22715;SDS011;11525;51.152;4.456;2022-08-02T13:00:42;6.70;;;1.13;;
22715;SDS011;11525;51.152;4.456;2022-08-02T13:03:20;4.78;;;1.27;;
22715;SDS011;11525;51.152;4.456;2022-08-02T13:05:48;2.20;;;1.20;;
22715;SDS011;11525;51.152;4.456;2022-08-02T13:08:13;2.35;;;1.08;;
22715;SDS011;11525;51.152;4.456;2022-08-02T13:10:39;5.20;;;1.13;;
22715;SDS011;11525;51.152;4.456;2022-08-02T13:13:06;3.65;;;1.13;;
22715;SDS011;11525;51.152;4.456;2022-08-02T13:15:31;4.13;;;1.10;;
22715;SDS011;11525;51.152;4.456;2022-08-02T13:17:57;3.78;;;1.10;;
22715;SDS011;11525;51.152;4.456;2022-08-02T13:20:25;4.88;;;1.23;;
22715;SDS011;11525;51.152;4.456;2022-08-02T13:22:52;5.22;;;1.05;;
22715;SDS011;11525;51.152;4.456;2022-08-02T13:25:18;6.28;;;1.17;;
22715;SDS011;11525;51.152;4.456;2022-08-02T13:27:50;6.90;;;1.73;;
22715;SDS011;11525;51.152;4.456;2022-08-02T13:30:16;4.20;;;1.20;;
22715;SDS011;11525;51.152;4.456;2022-08-02T13:32:43;3.35;;;1.15;;
22715;SDS011;11525;51.152;4.456;2022-08-02T13:35:08;2.88;;;1.20;;
22715;SDS011;11525;51.152;4.456;2022-08-02T13:37:35;3.13;;;0.90;;
22715;SDS011;11525;51.152;4.456;2022-08-02T13:40:01;3.60;;;1.08;;
22715;SDS011;11525;51.152;4.456;2022-08-02T13:42:26;5.68;;;1.05;;
22715;SDS011;11525;51.152;4.456;2022-08-02T13:44:52;2.10;;;1.38;;
22715;SDS011;11525;51.152;4.456;2022-08-02T13:47:18;6.20;;;1.40;;
22715;SDS011;11525;51.152;4.456;2022-08-02T13:49:44;3.03;;;1.38;;
22715;SDS011;11525;51.152;4.456;2022-08-02T13:52:10;6.53;;;1.38;;
22715;SDS011;11525;51.152;4.456;2022-08-02T13:54:35;3.53;;;1.10;;
22715;SDS011;11525;51.152;4.456;2022-08-02T13:57:01;4.20;;;1.35;;
22715;SDS011;11525;51.152;4.456;2022-08-02T13:59:27;4.40;;;1.27;;
22715;SDS011;11525;51.152;4.456;2022-08-02T14:01:53;4.53;;;1.42;;
22715;SDS011;11525;51.152;4.456;2022-08-02T14:04:20;3.72;;;1.33;;
22715;SDS011;11525;51.152;4.456;2022-08-02T14:06:46;7.10;;;2.03;;
22715;SDS011;11525;51.152;4.456;2022-08-02T14:09:12;3.33;;;1.30;;
22715;SDS011;11525;51.152;4.456;2022-08-02T14:11:38;4.45;;;1.38;;
22715;SDS011;11525;51.152;4.456;2022-08-02T14:14:03;4.32;;;1.30;;
22715;SDS011;11525;51.152;4.456;2022-08-02T14:16:29;4.18;;;1.17;;
22715;SDS011;11525;51.152;4.456;2022-08-02T14:18:54;4.18;;;0.93;;
22715;SDS011;11525;51.152;4.456;2022-08-02T14:21:21;5.15;;;1.23;;
22715;SDS011;11525;51.152;4.456;2022-08-02T14:23:47;6.75;;;1.50;;
22715;SDS011;11525;51.152;4.456;2022-08-02T14:26:13;3.97;;;1.05;;
22715;SDS011;11525;51.152;4.456;2022-08-02T14:28:39;4.95;;;1.35;;
22715;SDS011;11525;51.152;4.456;2022-08-02T14:31:04;2.63;;;1.05;;
22715;SDS011;11525;51.152;4.456;2022-08-02T14:33:30;3.15;;;1.20;;
22715;SDS011;11525;51.152;4.456;2022-08-02T14:35:56;5.47;;;1.48;;
22715;SDS011;11525;51.152;4.456;2022-08-02T14:38:22;6.78;;;1.40;;
22715;SDS011;11525;51.152;4.456;2022-08-02T14:40:48;5.40;;;1.30;;
22715;SDS011;11525;51.152;4.456;2022-08-02T14:43:13;6.47;;;1.38;;
22715;SDS011;11525;51.152;4.456;2022-08-02T14:45:59;4.25;;;1.45;;
22715;SDS011;11525;51.152;4.456;2022-08-02T14:48:25;6.30;;;1.63;;
22715;SDS011;11525;51.152;4.456;2022-08-02T14:50:52;3.70;;;1.00;;
22715;SDS011;11525;51.152;4.456;2022-08-02T14:53:18;5.30;;;1.38;;
22715;SDS011;11525;51.152;4.456;2022-08-02T14:55:44;6.40;;;1.50;;
22715;SDS011;11525;51.152;4.456;2022-08-02T14:58:10;3.72;;;1.33;;
22715;SDS011;11525;51.152;4.456;2022-08-02T15:00:36;3.85;;;1.23;;
22715;SDS011;11525;51.152;4.456;2022-08-02T15:03:03;3.60;;;1.10;;
22715;SDS011;11525;51.152;4.456;2022-08-02T15:05:29;3.88;;;1.15;;
22715;SDS011;11525;51.152;4.456;2022-08-02T15:07:54;6.32;;;1.38;;
22715;SDS011;11525;51.152;4.456;2022-08-02T15:10:20;3.72;;;1.10;;
22715;SDS011;11525;51.152;4.456;2022-08-02T15:12:46;6.47;;;1.55;;
22715;SDS011;11525;51.152;4.456;2022-08-02T15:15:11;3.85;;;1.20;;
22715;SDS011;11525;51.152;4.456;2022-08-02T15:17:37;5.95;;;1.55;;
22715;SDS011;11525;51.152;4.456;2022-08-02T15:20:03;3.65;;;1.67;;
22715;SDS011;11525;51.152;4.456;2022-08-02T15:22:29;6.85;;;1.50;;
22715;SDS011;11525;51.152;4.456;2022-08-02T15:24:55;5.43;;;1.20;;
22715;SDS011;11525;51.152;4.456;2022-08-02T15:27:21;5.82;;;1.63;;
22715;SDS011;11525;51.152;4.456;2022-08-02T15:29:47;6.78;;;1.67;;
22715;SDS011;11525;51.152;4.456;2022-08-02T15:32:14;6.63;;;1.58;;
22715;SDS011;11525;51.152;4.456;2022-08-02T15:34:44;2.63;;;1.17;;
22715;SDS011;11525;51.152;4.456;2022-08-02T15:37:11;7.95;;;1.73;;